createdAt,value
2022-08-29T00:02:19.816Z,92.57
2022-08-29T00:04:50.558Z,92.72
2022-08-29T00:07:22.112Z,92.77
2022-08-29T00:09:52.308Z,92.09
2022-08-29T00:12:25.162Z,92.28
2022-08-29T00:14:55.413Z,92.33
2022-08-29T00:17:25.519Z,92.93
2022-08-29T00:19:55.604Z,92.81
2022-08-29T00:22:26.764Z,93.15
2022-08-29T00:24:57.016Z,93.32
2022-08-29T00:27:29.843Z,92.54
2022-08-29T00:30:00.452Z,92.45
2022-08-29T00:32:35.173Z,92.66
2022-08-29T00:35:06.777Z,92.60
2022-08-29T00:37:37.046Z,92.67
2022-08-29T00:40:11.768Z,93.08
2022-08-29T00:42:44.713Z,92.97
2022-08-29T00:45:18.135Z,93.14
2022-08-29T00:47:52.956Z,93.09
2022-08-29T00:50:31.713Z,92.95
2022-08-29T00:53:04.777Z,93.17
2022-08-29T00:55:39.304Z,92.91
2022-08-29T00:58:17.564Z,92.95
2022-08-29T01:00:49.707Z,92.38
2022-08-29T01:03:19.902Z,93.29
2022-08-29T01:05:50.198Z,93.43
2022-08-29T01:08:20.491Z,93.29
2022-08-29T01:11:03.354Z,93.44
2022-08-29T01:13:41.956Z,92.90
2022-08-29T01:16:14.720Z,92.89
2022-08-29T01:18:48.477Z,93.17
2022-08-29T01:21:25.847Z,92.93
2022-08-29T01:24:08.569Z,93.23
2022-08-29T01:26:43.714Z,92.93
2022-08-29T01:29:14.697Z,92.89
2022-08-29T01:31:55.948Z,92.78
2022-08-29T01:34:31.481Z,92.73
2022-08-29T01:37:04.781Z,92.96
2022-08-29T01:39:38.347Z,92.84
2022-08-29T01:42:14.710Z,93.01
2022-08-29T01:44:45.275Z,93.17
2022-08-29T01:47:15.492Z,93.18
2022-08-29T01:49:45.856Z,92.97
2022-08-29T01:52:16.319Z,93.55
2022-08-29T01:54:48.196Z,93.61
2022-08-29T01:57:21.504Z,93.61
2022-08-29T01:59:51.875Z,93.15
2022-08-29T02:02:26.109Z,93.14
2022-08-29T02:04:58.792Z,92.99
2022-08-29T02:07:29.665Z,93.14
2022-08-29T02:09:59.798Z,93.02
2022-08-29T02:12:33.067Z,92.93
2022-08-29T02:15:03.822Z,93.00
2022-08-29T02:17:34.107Z,92.85
2022-08-29T02:20:05.842Z,92.75
2022-08-29T02:22:38.658Z,92.95
2022-08-29T02:25:24.262Z,93.36
2022-08-29T02:27:58.436Z,93.13
2022-08-29T02:30:28.779Z,93.54
2022-08-29T02:32:59.018Z,93.46
2022-08-29T02:35:30.204Z,93.21
2022-08-29T02:38:03.911Z,93.38
2022-08-29T02:40:35.370Z,93.44
2022-08-29T02:43:09.422Z,93.37
2022-08-29T02:45:40.917Z,93.18
2022-08-29T02:48:12.291Z,92.96
2022-08-29T02:50:44.179Z,93.33
2022-08-29T02:53:14.791Z,93.46
2022-08-29T02:55:45.212Z,93.30
2022-08-29T02:58:18.569Z,93.33
2022-08-29T03:00:48.943Z,92.83
2022-08-29T03:03:19.561Z,92.59
2022-08-29T03:05:51.031Z,93.16
2022-08-29T03:08:21.404Z,93.34
2022-08-29T03:10:51.688Z,93.02
2022-08-29T03:13:24.729Z,92.95
2022-08-29T03:15:55.259Z,93.36
2022-08-29T03:18:26.174Z,93.68
2022-08-29T03:20:56.189Z,93.26
2022-08-29T03:23:26.432Z,93.41
2022-08-29T03:25:56.887Z,94.18
2022-08-29T03:28:30.237Z,94.01
2022-08-29T03:31:00.469Z,93.85
2022-08-29T03:33:30.694Z,93.55
2022-08-29T03:36:00.968Z,93.34
2022-08-29T03:38:31.231Z,93.53
2022-08-29T03:41:01.432Z,93.32
2022-08-29T03:43:34.288Z,93.56
2022-08-29T03:46:04.720Z,93.44
2022-08-29T03:48:35.572Z,93.72
2022-08-29T03:51:05.814Z,94.07
2022-08-29T03:53:36.471Z,94.23
2022-08-29T03:56:07.588Z,94.36
2022-08-29T03:58:44.190Z,93.75
2022-08-29T04:01:17.031Z,93.62
2022-08-29T04:03:47.260Z,93.49
2022-08-29T04:06:17.425Z,94.14
2022-08-29T04:08:49.711Z,94.14
2022-08-29T04:11:22.065Z,93.66
2022-08-29T04:13:56.114Z,93.56
2022-08-29T04:16:30.863Z,94.09
2022-08-29T04:19:02.049Z,94.46
2022-08-29T04:21:33.981Z,94.57
2022-08-29T04:24:04.121Z,94.60
2022-08-29T04:26:37.467Z,94.42
2022-08-29T04:29:14.137Z,94.29
2022-08-29T04:31:46.020Z,94.39
2022-08-29T04:34:16.741Z,94.17
2022-08-29T04:36:48.340Z,94.62
2022-08-29T04:39:18.983Z,95.17
2022-08-29T04:41:49.142Z,94.22
2022-08-29T04:44:21.955Z,93.86
2022-08-29T04:46:52.238Z,93.95
2022-08-29T04:49:22.648Z,93.61
2022-08-29T04:51:55.839Z,94.32
2022-08-29T04:54:26.144Z,93.91
2022-08-29T04:56:57.333Z,93.28
2022-08-29T04:59:30.489Z,93.59
2022-08-29T05:02:00.944Z,93.54
2022-08-29T05:04:31.725Z,92.91
2022-08-29T05:07:01.946Z,92.61
2022-08-29T05:09:32.077Z,92.54
2022-08-29T05:12:06.037Z,92.23
2022-08-29T05:14:42.958Z,92.25
2022-08-29T05:17:14.314Z,91.89
2022-08-29T05:19:45.271Z,91.78
2022-08-29T05:22:17.010Z,91.88
2022-08-29T05:24:47.662Z,92.72
2022-08-29T05:27:24.799Z,92.94
2022-08-29T05:29:58.443Z,92.77
2022-08-29T05:32:28.947Z,92.38
2022-08-29T05:35:00.237Z,89.86
2022-08-29T05:37:30.420Z,89.10
2022-08-29T05:40:00.841Z,88.62
2022-08-29T05:42:31.202Z,87.38
2022-08-29T05:45:06.530Z,87.02
2022-08-29T05:47:36.866Z,86.62
2022-08-29T05:50:08.280Z,86.14
2022-08-29T05:52:38.398Z,86.64
2022-08-29T05:55:09.343Z,84.92
2022-08-29T05:57:39.800Z,85.25
2022-08-29T06:00:15.284Z,84.88
2022-08-29T06:02:45.639Z,85.46
2022-08-29T06:05:18.492Z,84.96
2022-08-29T06:07:48.647Z,84.05
2022-08-29T06:10:18.820Z,83.15
2022-08-29T06:12:48.992Z,81.64
2022-08-29T06:15:22.616Z,80.72
2022-08-29T06:17:53.107Z,78.07
2022-08-29T06:20:24.547Z,78.35
2022-08-29T06:22:54.704Z,78.01
2022-08-29T06:25:40.526Z,78.37
2022-08-29T06:28:11.034Z,75.85
2022-08-29T06:30:46.128Z,74.72
2022-08-29T06:33:17.422Z,73.35
2022-08-29T06:35:47.637Z,73.90
2022-08-29T06:38:18.001Z,69.09
2022-08-29T06:40:48.166Z,69.81
2022-08-29T06:43:18.317Z,66.79
2022-08-29T06:45:51.361Z,65.91
2022-08-29T06:48:22.406Z,65.39
2022-08-29T06:50:55.420Z,65.68
2022-08-29T06:53:31.771Z,65.05
2022-08-29T06:56:11.284Z,63.46
2022-08-29T06:58:42.379Z,63.42
2022-08-29T07:01:18.419Z,63.54
2022-08-29T07:03:49.004Z,62.15
2022-08-29T07:06:20.899Z,60.52
2022-08-29T07:08:55.876Z,59.14
2022-08-29T07:11:27.648Z,58.80
2022-08-29T07:14:00.746Z,58.38
2022-08-29T07:16:35.734Z,56.02
2022-08-29T07:19:08.371Z,56.78
2022-08-29T07:21:39.223Z,54.75
2022-08-29T07:24:10.863Z,54.82
2022-08-29T07:26:45.240Z,54.46
2022-08-29T07:29:19.458Z,52.72
2022-08-29T07:31:52.800Z,53.73
2022-08-29T07:34:23.194Z,52.10
2022-08-29T07:36:53.339Z,53.46
2022-08-29T07:39:25.147Z,50.77
2022-08-29T07:41:55.756Z,50.21
2022-08-29T07:44:26.006Z,49.48
2022-08-29T07:47:03.733Z,49.90
2022-08-29T07:49:41.150Z,48.51
2022-08-29T07:52:11.934Z,49.17
2022-08-29T07:54:42.158Z,50.76
2022-08-29T07:57:12.945Z,49.01
2022-08-29T07:59:43.095Z,48.58
2022-08-29T08:02:16.768Z,47.62
2022-08-29T08:04:47.291Z,43.52
2022-08-29T08:07:29.306Z,42.03
2022-08-29T08:10:00.059Z,40.88
2022-08-29T08:12:30.350Z,39.92
2022-08-29T08:15:01.196Z,39.92
2022-08-29T08:17:34.007Z,36.28
2022-08-29T08:20:05.997Z,35.52
2022-08-29T08:22:36.136Z,33.71
2022-08-29T08:25:07.922Z,32.08
2022-08-29T08:27:42.205Z,32.98
2022-08-29T08:30:15.418Z,30.86
2022-08-29T08:32:54.091Z,29.96
2022-08-29T08:35:25.838Z,29.77
2022-08-29T08:37:56.458Z,28.86
2022-08-29T08:40:30.459Z,28.21
2022-08-29T08:43:03.736Z,28.01
2022-08-29T08:45:40.040Z,27.74
2022-08-29T08:48:20.752Z,27.02
2022-08-29T08:50:55.171Z,26.55
2022-08-29T08:53:33.930Z,25.91
2022-08-29T08:56:09.051Z,25.95
2022-08-29T08:58:50.745Z,26.71
2022-08-29T09:01:26.718Z,25.81
2022-08-29T09:04:16.337Z,25.69
2022-08-29T09:06:57.216Z,25.55
2022-08-29T09:09:43.959Z,25.74
2022-08-29T09:12:35.319Z,25.90
2022-08-29T09:15:13.824Z,25.98
2022-08-29T09:17:53.153Z,26.09
2022-08-29T09:20:35.615Z,26.08
2022-08-29T09:23:10.843Z,26.10
2022-08-29T09:25:41.077Z,25.66
2022-08-29T09:28:12.236Z,26.12
2022-08-29T09:30:46.642Z,26.34
2022-08-29T09:33:19.190Z,26.26
2022-08-29T09:35:56.064Z,26.96
2022-08-29T09:38:28.460Z,26.73
2022-08-29T09:41:01.828Z,25.95
2022-08-29T09:43:50.500Z,25.61
2022-08-29T09:46:25.774Z,25.99
2022-08-29T09:49:15.825Z,26.21
2022-08-29T09:51:52.149Z,25.65
2022-08-29T09:54:31.340Z,26.29
2022-08-29T09:57:06.658Z,26.15
2022-08-29T09:59:40.743Z,25.94
2022-08-29T10:02:25.284Z,26.46
2022-08-29T10:04:58.609Z,26.39
2022-08-29T10:07:37.776Z,26.48
2022-08-29T10:10:18.035Z,27.12
2022-08-29T10:13:02.581Z,27.16
2022-08-29T10:15:50.596Z,27.46
2022-08-29T10:18:30.603Z,26.79
2022-08-29T10:21:17.873Z,27.39
2022-08-29T10:24:21.382Z,26.29
2022-08-29T10:27:01.390Z,27.11
2022-08-29T10:29:53.614Z,26.96
2022-08-29T10:32:42.136Z,27.29
2022-08-29T10:35:21.020Z,26.86
2022-08-29T10:37:58.814Z,27.11
2022-08-29T10:40:43.655Z,26.26
2022-08-29T10:43:38.740Z,27.06
2022-08-29T10:46:48.909Z,26.22
2022-08-29T10:49:32.584Z,26.64
2022-08-29T10:52:11.482Z,26.31
2022-08-29T10:54:54.542Z,25.67
2022-08-29T10:57:57.546Z,26.39
2022-08-29T11:00:38.525Z,26.33
2022-08-29T11:03:20.659Z,26.17
2022-08-29T11:06:00.971Z,25.32
2022-08-29T11:08:36.467Z,25.37
2022-08-29T11:11:07.384Z,25.09
2022-08-29T11:13:46.675Z,24.61
2022-08-29T11:16:23.677Z,24.23
2022-08-29T11:19:00.345Z,24.16
2022-08-29T11:21:37.176Z,24.44
2022-08-29T11:24:08.709Z,23.52
2022-08-29T11:26:55.410Z,24.07
2022-08-29T11:29:40.818Z,23.20
2022-08-29T11:32:17.418Z,23.92
2022-08-29T11:35:03.759Z,24.02
2022-08-29T11:38:07.879Z,22.44
2022-08-29T11:43:53.658Z,22.05
2022-08-29T11:46:41.632Z,22.00
2022-08-29T11:49:36.573Z,21.53
2022-08-29T11:52:29.453Z,20.30
2022-08-29T11:55:41.042Z,19.91
2022-08-29T11:58:48.755Z,20.41
2022-08-29T12:02:00.833Z,20.67
2022-08-29T12:04:57.082Z,20.22
2022-08-29T12:07:38.861Z,18.92
2022-08-29T12:10:16.074Z,19.23
2022-08-29T12:12:51.222Z,19.06
2022-08-29T12:15:56.760Z,18.60
2022-08-29T12:18:44.087Z,18.22
2022-08-29T12:21:37.554Z,18.22
2022-08-29T12:24:09.248Z,19.35
2022-08-29T12:26:47.272Z,19.71
2022-08-29T12:29:22.173Z,19.95
2022-08-29T12:32:40.054Z,20.05
2022-08-29T12:35:59.452Z,20.66
2022-08-29T12:38:42.509Z,21.07
2022-08-29T12:41:37.108Z,21.30
2022-08-29T12:44:16.751Z,21.22
2022-08-29T12:46:51.011Z,22.56
2022-08-29T12:49:29.756Z,24.21
2022-08-29T12:52:03.652Z,23.61
2022-08-29T12:54:37.636Z,22.57
2022-08-29T12:57:11.622Z,22.50
2022-08-29T12:59:47.934Z,22.64
2022-08-29T13:02:28.830Z,23.81
2022-08-29T13:05:02.715Z,24.06
2022-08-29T13:07:33.889Z,22.02
2022-08-29T13:10:04.216Z,22.02
2022-08-29T13:12:37.823Z,23.21
2022-08-29T13:15:12.084Z,23.36
2022-08-29T13:17:45.751Z,23.57
2022-08-29T13:21:08.121Z,21.95
2022-08-29T13:23:48.606Z,20.94
2022-08-29T13:26:27.751Z,20.32
2022-08-29T13:29:01.213Z,21.30
2022-08-29T13:31:36.530Z,21.53
2022-08-29T13:34:17.828Z,20.97
2022-08-29T13:37:06.402Z,20.24
2022-08-29T13:39:47.864Z,19.46
2022-08-29T13:42:35.931Z,20.35
2022-08-29T13:45:24.020Z,21.30
2022-08-29T13:48:20.469Z,22.36
2022-08-29T13:50:50.742Z,22.42
2022-08-29T13:53:23.543Z,22.33
2022-08-29T13:55:53.835Z,21.87
2022-08-29T13:58:26.947Z,23.01
2022-08-29T14:00:57.493Z,22.63
2022-08-29T14:03:28.830Z,23.16
2022-08-29T14:05:59.908Z,21.78
2022-08-29T14:08:34.328Z,21.55
2022-08-29T14:11:04.496Z,22.02
2022-08-29T14:13:41.912Z,22.18
2022-08-29T14:16:13.075Z,24.18
2022-08-29T14:18:43.686Z,24.05
2022-08-29T14:21:13.967Z,22.78
2022-08-29T14:23:48.553Z,20.75
2022-08-29T14:26:18.757Z,20.07
2022-08-29T14:28:48.966Z,20.79
2022-08-29T14:31:19.167Z,20.78
2022-08-29T14:33:51.536Z,21.41
2022-08-29T14:36:22.155Z,21.63
2022-08-29T14:38:58.546Z,21.19
2022-08-29T14:41:28.857Z,21.10
2022-08-29T14:44:03.736Z,19.74
2022-08-29T14:46:34.086Z,19.72
2022-08-29T14:49:04.611Z,19.89
2022-08-29T14:51:34.956Z,20.09
2022-08-29T14:54:07.994Z,20.29
2022-08-29T14:56:49.187Z,21.40
2022-08-29T14:59:20.626Z,22.00
2022-08-29T15:01:54.531Z,20.36
2022-08-29T15:04:35.584Z,21.32
2022-08-29T15:07:07.531Z,20.97
2022-08-29T15:09:41.939Z,21.07
2022-08-29T15:12:12.844Z,21.00
2022-08-29T15:14:43.940Z,20.94
2022-08-29T15:17:14.970Z,20.81
2022-08-29T15:22:36.551Z,20.98
2022-08-29T15:25:11.197Z,21.51
2022-08-29T15:27:41.928Z,22.11
2022-08-29T15:30:14.657Z,21.72
2022-08-29T15:32:44.871Z,21.70
2022-08-29T15:35:19.923Z,21.51
2022-08-29T15:37:50.059Z,22.16
2022-08-29T15:40:22.930Z,21.85
2022-08-29T15:42:53.329Z,21.20
2022-08-29T15:45:23.619Z,21.85
2022-08-29T15:47:54.774Z,22.54
2022-08-29T15:50:25.914Z,22.70
2022-08-29T15:52:56.219Z,24.44
2022-08-29T15:55:29.046Z,24.54
2022-08-29T15:57:59.505Z,24.86
2022-08-29T16:00:31.283Z,26.20
2022-08-29T16:03:04.393Z,26.17
2022-08-29T16:05:36.007Z,26.78
2022-08-29T16:08:06.774Z,28.08
2022-08-29T16:10:40.348Z,29.45
2022-08-29T16:13:11.744Z,30.18
2022-08-29T16:15:42.026Z,30.73
2022-08-29T16:18:12.746Z,32.05
2022-08-29T16:20:43.077Z,32.74
2022-08-29T16:23:13.325Z,32.70
2022-08-29T16:25:46.441Z,32.63
2022-08-29T16:28:17.144Z,33.98
2022-08-29T16:30:49.825Z,33.92
2022-08-29T16:33:20.687Z,34.39
2022-08-29T16:35:50.833Z,33.20
2022-08-29T16:38:21.171Z,33.50
2022-08-29T16:40:53.699Z,34.43
2022-08-29T16:43:24.356Z,33.53
2022-08-29T16:45:54.676Z,34.48
2022-08-29T16:48:24.612Z,35.69
2022-08-29T16:50:54.933Z,36.92
2022-08-29T16:53:24.935Z,37.75
2022-08-29T16:55:57.649Z,38.49
2022-08-29T16:58:40.191Z,38.63
2022-08-29T17:01:10.580Z,39.57
2022-08-29T17:03:40.472Z,40.99
2022-08-29T17:06:11.536Z,41.20
2022-08-29T17:08:39.303Z,40.98
2022-08-29T17:11:09.910Z,42.12
2022-08-29T17:13:39.761Z,41.89
2022-08-29T17:16:09.866Z,42.05
2022-08-29T17:18:41.393Z,42.21
2022-08-29T17:21:12.250Z,43.31
2022-08-29T17:23:43.040Z,43.67
2022-08-29T17:26:19.151Z,44.63
2022-08-29T17:28:50.647Z,44.82
2022-08-29T17:31:21.047Z,44.98
2022-08-29T17:33:51.264Z,46.23
2022-08-29T17:36:21.792Z,46.83
2022-08-29T17:38:52.205Z,47.20
2022-08-29T17:41:25.967Z,47.21
2022-08-29T17:43:56.644Z,48.11
2022-08-29T17:46:26.883Z,47.96
2022-08-29T17:48:57.184Z,48.47
2022-08-29T17:51:28.397Z,48.50
2022-08-29T17:53:58.765Z,49.69
2022-08-29T17:56:44.396Z,49.98
2022-08-29T17:59:15.583Z,49.65
2022-08-29T18:01:46.724Z,51.17
2022-08-29T18:04:18.324Z,51.36
2022-08-29T18:06:49.511Z,51.46
2022-08-29T18:09:19.671Z,51.90
2022-08-29T18:11:55.637Z,52.73
2022-08-29T18:14:27.579Z,52.13
2022-08-29T18:16:59.060Z,52.45
2022-08-29T18:19:29.344Z,52.63
2022-08-29T18:21:59.567Z,53.21
2022-08-29T18:24:29.746Z,53.90
2022-08-29T18:27:02.691Z,54.57
2022-08-29T18:29:32.875Z,55.94
2022-08-29T18:32:03.436Z,56.73
2022-08-29T18:34:33.410Z,56.81
2022-08-29T18:37:03.614Z,57.28
2022-08-29T18:39:33.827Z,57.69
2022-08-29T18:42:24.736Z,57.36
2022-08-29T18:44:58.905Z,58.05
2022-08-29T18:47:29.331Z,58.34
2022-08-29T18:50:11.997Z,58.56
2022-08-29T18:52:42.237Z,58.61
2022-08-29T18:55:16.033Z,58.90
2022-08-29T18:57:50.329Z,59.78
2022-08-29T19:00:21.694Z,60.46
2022-08-29T19:02:51.869Z,60.68
2022-08-29T19:05:22.265Z,60.36
2022-08-29T19:07:52.740Z,61.02
2022-08-29T19:10:23.844Z,61.44
2022-08-29T19:12:58.757Z,61.15
2022-08-29T19:15:31.350Z,61.48
2022-08-29T19:18:01.567Z,61.90
2022-08-29T19:20:44.643Z,62.38
2022-08-29T19:23:15.401Z,62.45
2022-08-29T19:25:46.755Z,62.68
2022-08-29T19:28:22.536Z,63.50
2022-08-29T19:30:53.465Z,64.14
2022-08-29T19:33:23.810Z,64.03
2022-08-29T19:35:54.106Z,64.12
2022-08-29T19:38:27.642Z,64.66
2022-08-29T19:40:59.571Z,64.73
2022-08-29T19:43:35.906Z,64.82
2022-08-29T19:46:14.452Z,65.37
2022-08-29T19:48:50.941Z,65.70
2022-08-29T19:51:24.901Z,65.87
2022-08-29T19:53:57.415Z,65.37
2022-08-29T19:56:29.266Z,65.48
2022-08-29T19:59:02.888Z,66.07
2022-08-29T20:01:33.133Z,66.68
2022-08-29T20:04:03.413Z,66.59
2022-08-29T20:06:34.294Z,66.97
2022-08-29T20:09:05.604Z,66.57
2022-08-29T20:11:40.022Z,66.11
2022-08-29T20:14:16.896Z,66.21
2022-08-29T20:16:47.493Z,66.98
2022-08-29T20:19:19.255Z,66.87
2022-08-29T20:21:50.026Z,66.76
2022-08-29T20:24:20.330Z,66.21
2022-08-29T20:26:50.819Z,65.20
2022-08-29T20:29:28.442Z,65.32
2022-08-29T20:32:00.662Z,66.74
2022-08-29T20:34:31.149Z,67.54
2022-08-29T20:37:11.514Z,67.64
2022-08-29T20:39:46.267Z,68.27
2022-08-29T20:42:18.778Z,68.86
2022-08-29T20:44:51.672Z,69.42
2022-08-29T20:47:23.967Z,69.45
2022-08-29T20:49:58.715Z,69.42
2022-08-29T20:52:29.190Z,68.61
2022-08-29T20:55:00.096Z,69.38
2022-08-29T20:57:30.359Z,69.43
2022-08-29T21:00:03.252Z,70.59
2022-08-29T21:02:45.952Z,70.52
2022-08-29T21:05:28.551Z,71.48
2022-08-29T21:07:58.728Z,71.29
2022-08-29T21:10:29.134Z,70.63
2022-08-29T21:12:59.355Z,70.55
2022-08-29T21:15:32.310Z,71.10
2022-08-29T21:18:02.941Z,71.83
2022-08-29T21:20:33.566Z,72.11
2022-08-29T21:23:05.046Z,72.09
2022-08-29T21:25:35.677Z,72.71
2022-08-29T21:28:07.639Z,72.48
2022-08-29T21:30:45.274Z,72.76
2022-08-29T21:33:16.132Z,72.67
2022-08-29T21:35:47.076Z,73.19
2022-08-29T21:38:21.233Z,74.14
2022-08-29T21:40:51.614Z,74.08
2022-08-29T21:43:22.346Z,74.18
2022-08-29T21:45:55.175Z,74.83
2022-08-29T21:48:25.403Z,75.04
2022-08-29T21:50:57.824Z,75.36
2022-08-29T21:53:28.089Z,75.46
2022-08-29T21:55:58.308Z,75.75
2022-08-29T21:58:28.617Z,75.66
2022-08-29T22:01:01.490Z,75.94
2022-08-29T22:03:31.901Z,76.30
2022-08-29T22:06:02.281Z,76.25
2022-08-29T22:08:33.413Z,76.38
2022-08-29T22:11:03.654Z,76.17
2022-08-29T22:13:33.883Z,76.85
2022-08-29T22:16:19.200Z,76.56
2022-08-29T22:18:49.475Z,76.37
2022-08-29T22:21:20.000Z,76.53
2022-08-29T22:23:50.276Z,76.78
2022-08-29T22:26:20.607Z,77.15
2022-08-29T22:28:54.762Z,76.95
2022-08-29T22:31:28.795Z,77.16
2022-08-29T22:33:59.011Z,77.55
2022-08-29T22:36:29.529Z,77.04
2022-08-29T22:38:59.772Z,77.27
2022-08-29T22:41:29.925Z,77.73
2022-08-29T22:46:54.938Z,78.82
2022-08-29T22:49:32.994Z,78.73
2022-08-29T22:52:03.976Z,79.24
2022-08-29T22:54:40.136Z,79.35
2022-08-29T22:57:13.994Z,79.10
2022-08-29T22:59:46.086Z,79.54
2022-08-29T23:02:20.792Z,80.30
2022-08-29T23:04:52.353Z,80.07
2022-08-29T23:07:22.982Z,80.08
2022-08-29T23:09:53.363Z,79.84
2022-08-29T23:12:23.636Z,79.80
2022-08-29T23:14:54.136Z,80.48
2022-08-29T23:17:27.128Z,79.75
2022-08-29T23:19:57.419Z,79.73
2022-08-29T23:22:28.552Z,80.27
2022-08-29T23:24:59.165Z,80.71
2022-08-29T23:27:30.747Z,80.00
2022-08-29T23:30:02.032Z,80.42
2022-08-29T23:32:34.917Z,80.93
2022-08-29T23:35:05.167Z,80.80
2022-08-29T23:37:35.617Z,80.72
2022-08-29T23:40:07.456Z,81.24
2022-08-29T23:42:38.104Z,81.10
2022-08-29T23:45:10.907Z,81.28
2022-08-29T23:47:43.789Z,82.03
2022-08-29T23:50:15.766Z,82.43
2022-08-29T23:52:47.151Z,82.72
2022-08-29T23:55:19.285Z,82.98
2022-08-29T23:57:49.483Z,82.80
